LFMH/EBU METAR and TAF weather

Enter ICAO airport designator
Station Type Date Time Source
LFMH METAR 2022/01/27 23:30 UTC NOAA

LFMH 272330Z AUTO VRB02KT 1700 BR OVC003 M04/M04 Q1035


Station Type Date Time Source
LFMH Decoded METAR 2022/01/27 23:30 UTC NOAA

St-Etienne Boutheon, France (LFMH) 45-32N 004-18E 402M
Jan 27, 2022 - 06:30 PM EST / 2022.01.27 2330 UTC
Wind: Variable at 2 MPH (2 KT):0
Visibility: 1 mile(s):0
Sky conditions: overcast
Weather: mist
Temperature: 24 F (-4 C)
Dew Point: 24 F (-4 C)
Relative Humidity: 100%
Pressure (altimeter): 30.56 in. Hg (1035 hPa)
ob: LFMH 272330Z AUTO VRB02KT 1700 BR OVC003 M04/M04 Q1035
cycle: 23

Station Type Date Time Source
LFMH TAF 2021/06/16 19:09 UTC NOAA

TAF LFMH 161901Z 1619/1712 CNL

Example: see airport list